sensor_id;sensor_type;location;lat;lon;timestamp;pressure;altitude;pressure_sealevel;temperature;humidity
12360;BME280;6244;51.460;7.090;2023-05-27T00:01:00;101868.78;;;12.26;59.57
12360;BME280;6244;51.460;7.090;2023-05-27T00:05:56;101871.88;;;12.14;60.13
12360;BME280;6244;51.460;7.090;2023-05-27T00:10:53;101873.09;;;12.29;60.01
12360;BME280;6244;51.460;7.090;2023-05-27T00:15:49;101876.25;;;12.37;59.90
12360;BME280;6244;51.460;7.090;2023-05-27T00:20:48;101877.16;;;12.14;60.29
12360;BME280;6244;51.460;7.090;2023-05-27T00:25:44;101861.13;;;12.20;60.30
12360;BME280;6244;51.460;7.090;2023-05-27T00:30:42;101857.78;;;12.39;60.17
12360;BME280;6244;51.460;7.090;2023-05-27T00:35:38;101859.56;;;12.16;60.33
12360;BME280;6244;51.460;7.090;2023-05-27T00:40:38;101873.38;;;11.98;60.53
12360;BME280;6244;51.460;7.090;2023-05-27T00:45:35;101866.13;;;12.04;60.40
12360;BME280;6244;51.460;7.090;2023-05-27T00:50:32;101865.38;;;11.76;60.91
12360;BME280;6244;51.460;7.090;2023-05-27T00:55:28;101868.88;;;11.76;61.46
12360;BME280;6244;51.460;7.090;2023-05-27T01:00:26;101864.84;;;11.68;61.51
12360;BME280;6244;51.460;7.090;2023-05-27T01:05:23;101861.50;;;11.88;61.18
12360;BME280;6244;51.460;7.090;2023-05-27T01:10:24;101860.63;;;11.87;61.18
12360;BME280;6244;51.460;7.090;2023-05-27T01:15:23;101860.06;;;11.77;60.69
12360;BME280;6244;51.460;7.090;2023-05-27T01:20:22;101866.81;;;11.86;60.47
12360;BME280;6244;51.460;7.090;2023-05-27T01:25:20;101860.13;;;11.76;60.76
12360;BME280;6244;51.460;7.090;2023-05-27T01:30:17;101849.31;;;11.60;61.60
12360;BME280;6244;51.460;7.090;2023-05-27T01:35:17;101848.47;;;11.60;61.59
12360;BME280;6244;51.460;7.090;2023-05-27T01:40:18;101853.00;;;11.56;61.24
12360;BME280;6244;51.460;7.090;2023-05-27T01:45:16;101853.66;;;11.61;61.37
12360;BME280;6244;51.460;7.090;2023-05-27T01:50:13;101849.38;;;11.59;61.18
12360;BME280;6244;51.460;7.090;2023-05-27T01:55:10;101850.91;;;11.64;61.13
12360;BME280;6244;51.460;7.090;2023-05-27T02:00:08;101855.13;;;11.45;61.70
12360;BME280;6244;51.460;7.090;2023-05-27T02:05:06;101844.34;;;11.53;61.48
12360;BME280;6244;51.460;7.090;2023-05-27T02:10:03;101860.16;;;11.51;61.93
12360;BME280;6244;51.460;7.090;2023-05-27T02:15:00;101846.88;;;11.31;62.65
12360;BME280;6244;51.460;7.090;2023-05-27T02:19:56;101844.81;;;11.14;62.47
12360;BME280;6244;51.460;7.090;2023-05-27T02:24:54;101839.19;;;11.25;62.48
12360;BME280;6244;51.460;7.090;2023-05-27T02:29:51;101841.72;;;11.28;62.04
12360;BME280;6244;51.460;7.090;2023-05-27T02:34:47;101834.97;;;11.45;61.66
12360;BME280;6244;51.460;7.090;2023-05-27T02:39:44;101842.63;;;11.27;62.03
12360;BME280;6244;51.460;7.090;2023-05-27T02:44:42;101846.59;;;11.38;62.06
12360;BME280;6244;51.460;7.090;2023-05-27T02:49:38;101846.34;;;11.21;62.20
12360;BME280;6244;51.460;7.090;2023-05-27T02:54:35;101836.31;;;11.07;63.11
12360;BME280;6244;51.460;7.090;2023-05-27T02:59:31;101829.97;;;11.13;62.11
12360;BME280;6244;51.460;7.090;2023-05-27T03:04:29;101828.31;;;11.10;62.45
12360;BME280;6244;51.460;7.090;2023-05-27T03:09:26;101831.75;;;11.12;62.79
12360;BME280;6244;51.460;7.090;2023-05-27T03:14:23;101830.69;;;11.18;62.55
12360;BME280;6244;51.460;7.090;2023-05-27T03:19:19;101832.94;;;11.29;62.16
12360;BME280;6244;51.460;7.090;2023-05-27T03:24:18;101832.47;;;11.17;62.28
12360;BME280;6244;51.460;7.090;2023-05-27T03:29:14;101817.53;;;10.93;62.25
12360;BME280;6244;51.460;7.090;2023-05-27T03:34:11;101820.50;;;11.09;62.63
12360;BME280;6244;51.460;7.090;2023-05-27T03:39:08;101822.88;;;11.16;62.45
12360;BME280;6244;51.460;7.090;2023-05-27T03:44:06;101816.59;;;11.21;61.85
12360;BME280;6244;51.460;7.090;2023-05-27T03:49:02;101813.97;;;11.21;62.05
12360;BME280;6244;51.460;7.090;2023-05-27T03:53:59;101822.63;;;11.23;61.83
12360;BME280;6244;51.460;7.090;2023-05-27T03:58:55;101816.53;;;11.22;61.66
12360;BME280;6244;51.460;7.090;2023-05-27T04:03:53;101808.69;;;11.21;61.74
12360;BME280;6244;51.460;7.090;2023-05-27T04:08:50;101814.88;;;11.20;61.62
12360;BME280;6244;51.460;7.090;2023-05-27T04:13:46;101813.03;;;11.22;61.29
12360;BME280;6244;51.460;7.090;2023-05-27T04:18:44;101814.94;;;11.18;61.79
12360;BME280;6244;51.460;7.090;2023-05-27T04:23:45;101816.59;;;11.21;62.09
12360;BME280;6244;51.460;7.090;2023-05-27T04:28:41;101822.69;;;11.21;62.27
12360;BME280;6244;51.460;7.090;2023-05-27T04:33:40;101819.28;;;11.19;62.54
12360;BME280;6244;51.460;7.090;2023-05-27T04:38:37;101813.53;;;11.08;62.42
12360;BME280;6244;51.460;7.090;2023-05-27T04:43:35;101812.56;;;11.10;63.48
12360;BME280;6244;51.460;7.090;2023-05-27T04:48:31;101817.13;;;11.30;63.25
12360;BME280;6244;51.460;7.090;2023-05-27T04:53:30;101831.50;;;11.20;63.64
12360;BME280;6244;51.460;7.090;2023-05-27T04:58:27;101824.34;;;11.24;63.75
12360;BME280;6244;51.460;7.090;2023-05-27T05:03:25;101814.69;;;11.24;63.92
12360;BME280;6244;51.460;7.090;2023-05-27T05:08:32;101806.06;;;11.21;63.88
12360;BME280;6244;51.460;7.090;2023-05-27T05:13:28;101806.75;;;11.26;64.54
12360;BME280;6244;51.460;7.090;2023-05-27T05:18:26;101799.06;;;11.21;64.93
12360;BME280;6244;51.460;7.090;2023-05-27T05:23:23;101805.03;;;11.25;64.57
12360;BME280;6244;51.460;7.090;2023-05-27T05:28:19;101800.94;;;11.17;65.04
12360;BME280;6244;51.460;7.090;2023-05-27T05:33:16;101795.78;;;11.14;65.28
12360;BME280;6244;51.460;7.090;2023-05-27T05:38:15;101796.59;;;11.16;65.66
12360;BME280;6244;51.460;7.090;2023-05-27T05:43:12;101803.66;;;11.14;66.33
12360;BME280;6244;51.460;7.090;2023-05-27T05:48:08;101795.13;;;11.33;65.95
12360;BME280;6244;51.460;7.090;2023-05-27T05:53:05;101785.53;;;11.32;66.13
12360;BME280;6244;51.460;7.090;2023-05-27T05:58:03;101773.00;;;11.38;65.16
12360;BME280;6244;51.460;7.090;2023-05-27T06:02:59;101763.94;;;11.47;64.94
12360;BME280;6244;51.460;7.090;2023-05-27T06:07:56;101781.06;;;11.34;66.49
12360;BME280;6244;51.460;7.090;2023-05-27T06:12:52;101796.38;;;11.23;67.46
12360;BME280;6244;51.460;7.090;2023-05-27T06:17:50;101790.34;;;11.44;67.21
12360;BME280;6244;51.460;7.090;2023-05-27T06:22:47;101790.41;;;11.66;66.24
12360;BME280;6244;51.460;7.090;2023-05-27T06:27:43;101780.50;;;11.72;66.24
12360;BME280;6244;51.460;7.090;2023-05-27T06:32:40;101783.16;;;11.72;66.12
12360;BME280;6244;51.460;7.090;2023-05-27T06:37:38;101775.88;;;11.81;65.95
12360;BME280;6244;51.460;7.090;2023-05-27T06:42:34;101776.66;;;11.83;65.89
12360;BME280;6244;51.460;7.090;2023-05-27T06:47:31;101775.25;;;11.96;65.95
12360;BME280;6244;51.460;7.090;2023-05-27T06:52:27;101767.09;;;12.03;65.63
12360;BME280;6244;51.460;7.090;2023-05-27T06:57:25;101760.91;;;12.04;66.26
12360;BME280;6244;51.460;7.090;2023-05-27T07:02:22;101766.53;;;12.17;65.89
12360;BME280;6244;51.460;7.090;2023-05-27T07:07:18;101751.34;;;12.24;65.85
12360;BME280;6244;51.460;7.090;2023-05-27T07:12:15;101760.16;;;12.45;65.03
12360;BME280;6244;51.460;7.090;2023-05-27T07:17:13;101751.06;;;12.52;65.29
12360;BME280;6244;51.460;7.090;2023-05-27T07:22:09;101746.28;;;12.61;64.94
12360;BME280;6244;51.460;7.090;2023-05-27T07:27:06;101743.25;;;12.91;64.34
12360;BME280;6244;51.460;7.090;2023-05-27T07:32:03;101742.59;;;13.06;63.77
12360;BME280;6244;51.460;7.090;2023-05-27T07:37:01;101739.75;;;13.31;62.27
12360;BME280;6244;51.460;7.090;2023-05-27T07:41:57;101731.09;;;13.67;61.41
12360;BME280;6244;51.460;7.090;2023-05-27T07:46:54;101719.56;;;13.87;60.48
12360;BME280;6244;51.460;7.090;2023-05-27T07:51:50;101714.00;;;14.29;59.79
12360;BME280;6244;51.460;7.090;2023-05-27T07:56:48;101721.97;;;14.46;59.10
12360;BME280;6244;51.460;7.090;2023-05-27T08:01:45;101714.88;;;14.81;58.64
12360;BME280;6244;51.460;7.090;2023-05-27T08:06:42;101711.38;;;15.47;54.64
12360;BME280;6244;51.460;7.090;2023-05-27T08:11:38;101705.34;;;16.68;52.54
12360;BME280;6244;51.460;7.090;2023-05-27T08:16:36;101700.66;;;18.00;48.67
12360;BME280;6244;51.460;7.090;2023-05-27T08:21:33;101691.56;;;18.94;46.43
12360;BME280;6244;51.460;7.090;2023-05-27T08:26:30;101671.84;;;19.72;44.71
12360;BME280;6244;51.460;7.090;2023-05-27T08:31:27;101674.50;;;20.43;42.72
12360;BME280;6244;51.460;7.090;2023-05-27T08:36:25;101667.03;;;20.82;41.47
12360;BME280;6244;51.460;7.090;2023-05-27T08:41:21;101667.91;;;20.94;40.86
12360;BME280;6244;51.460;7.090;2023-05-27T08:46:18;101652.19;;;21.67;39.34
12360;BME280;6244;51.460;7.090;2023-05-27T08:51:16;101657.63;;;22.41;37.42
12360;BME280;6244;51.460;7.090;2023-05-27T08:56:19;101643.22;;;22.33;38.97
12360;BME280;6244;51.460;7.090;2023-05-27T09:01:16;101642.16;;;21.60;42.00
12360;BME280;6244;51.460;7.090;2023-05-27T09:06:13;101638.47;;;21.72;45.02
12360;BME280;6244;51.460;7.090;2023-05-27T09:11:21;101618.66;;;22.07;39.13
12360;BME280;6244;51.460;7.090;2023-05-27T09:16:20;101618.91;;;22.66;41.15
12360;BME280;6244;51.460;7.090;2023-05-27T09:21:17;101604.19;;;22.81;42.77
12360;BME280;6244;51.460;7.090;2023-05-27T09:26:14;101606.25;;;22.89;40.54
12360;BME280;6244;51.460;7.090;2023-05-27T09:31:12;101609.59;;;23.22;38.20
12360;BME280;6244;51.460;7.090;2023-05-27T09:36:08;101606.09;;;22.91;39.35
12360;BME280;6244;51.460;7.090;2023-05-27T09:41:05;101598.94;;;23.51;37.28
12360;BME280;6244;51.460;7.090;2023-05-27T09:46:09;101594.00;;;24.14;35.86
12360;BME280;6244;51.460;7.090;2023-05-27T09:51:08;101589.13;;;26.45;31.93
12360;BME280;6244;51.460;7.090;2023-05-27T09:56:05;101572.91;;;27.88;28.75
12360;BME280;6244;51.460;7.090;2023-05-27T10:01:03;101566.09;;;28.49;25.68
12360;BME280;6244;51.460;7.090;2023-05-27T10:06:00;101562.47;;;28.73;26.25
12360;BME280;6244;51.460;7.090;2023-05-27T10:10:59;101558.59;;;29.38;25.51
12360;BME280;6244;51.460;7.090;2023-05-27T10:15:56;101553.59;;;29.04;24.38
12360;BME280;6244;51.460;7.090;2023-05-27T10:20:53;101551.88;;;28.63;25.67
12360;BME280;6244;51.460;7.090;2023-05-27T10:25:51;101544.78;;;29.10;24.31
12360;BME280;6244;51.460;7.090;2023-05-27T10:30:49;101546.22;;;30.12;23.86
12360;BME280;6244;51.460;7.090;2023-05-27T10:35:49;101538.19;;;30.48;23.32
12360;BME280;6244;51.460;7.090;2023-05-27T10:40:46;101526.50;;;30.92;22.53
12360;BME280;6244;51.460;7.090;2023-05-27T10:45:43;101520.34;;;30.83;23.00
12360;BME280;6244;51.460;7.090;2023-05-27T10:50:49;101518.13;;;31.44;22.93
12360;BME280;6244;51.460;7.090;2023-05-27T10:55:47;101508.25;;;31.86;22.06
12360;BME280;6244;51.460;7.090;2023-05-27T11:00:44;101502.59;;;31.81;22.18
12360;BME280;6244;51.460;7.090;2023-05-27T11:05:43;101495.88;;;31.55;21.53
12360;BME280;6244;51.460;7.090;2023-05-27T11:10:40;101489.09;;;31.66;21.60
12360;BME280;6244;51.460;7.090;2023-05-27T11:15:40;101486.25;;;31.74;21.45
12360;BME280;6244;51.460;7.090;2023-05-27T11:20:37;101479.78;;;32.03;20.74
12360;BME280;6244;51.460;7.090;2023-05-27T11:25:44;101478.56;;;31.78;20.31
12360;BME280;6244;51.460;7.090;2023-05-27T11:30:41;101468.16;;;29.03;24.38
12360;BME280;6244;51.460;7.090;2023-05-27T11:35:37;101448.69;;;27.65;25.62
12360;BME280;6244;51.460;7.090;2023-05-27T11:40:35;101437.94;;;26.58;27.86
12360;BME280;6244;51.460;7.090;2023-05-27T11:45:36;101437.19;;;26.05;30.55
12360;BME280;6244;51.460;7.090;2023-05-27T11:50:34;101446.78;;;25.64;30.34
12360;BME280;6244;51.460;7.090;2023-05-27T11:55:30;101431.50;;;25.83;30.41
12360;BME280;6244;51.460;7.090;2023-05-27T12:00:27;101433.44;;;25.11;31.87
12360;BME280;6244;51.460;7.090;2023-05-27T12:05:25;101418.81;;;24.23;33.71
12360;BME280;6244;51.460;7.090;2023-05-27T12:10:22;101409.00;;;23.57;32.37
12360;BME280;6244;51.460;7.090;2023-05-27T12:15:18;101407.19;;;23.19;36.28
12360;BME280;6244;51.460;7.090;2023-05-27T12:20:15;101395.53;;;22.41;37.47
12360;BME280;6244;51.460;7.090;2023-05-27T12:25:13;101387.63;;;22.20;37.78
12360;BME280;6244;51.460;7.090;2023-05-27T12:30:10;101381.31;;;22.01;37.99
12360;BME280;6244;51.460;7.090;2023-05-27T12:35:08;101378.84;;;21.88;40.02
12360;BME280;6244;51.460;7.090;2023-05-27T12:40:06;101380.78;;;22.07;37.71
12360;BME280;6244;51.460;7.090;2023-05-27T12:45:08;101377.13;;;21.77;39.59
12360;BME280;6244;51.460;7.090;2023-05-27T12:50:06;101365.09;;;21.62;38.91
12360;BME280;6244;51.460;7.090;2023-05-27T12:55:03;101360.31;;;21.65;39.11
12360;BME280;6244;51.460;7.090;2023-05-27T13:00:00;101357.47;;;21.57;38.40
12360;BME280;6244;51.460;7.090;2023-05-27T13:04:58;101358.13;;;21.71;38.99
12360;BME280;6244;51.460;7.090;2023-05-27T13:09:56;101343.59;;;21.63;39.16
12360;BME280;6244;51.460;7.090;2023-05-27T13:14:52;101340.91;;;21.63;40.19
12360;BME280;6244;51.460;7.090;2023-05-27T13:19:49;101339.53;;;21.69;37.63
12360;BME280;6244;51.460;7.090;2023-05-27T13:24:47;101327.16;;;21.98;38.70
12360;BME280;6244;51.460;7.090;2023-05-27T13:29:43;101325.25;;;22.10;36.96
12360;BME280;6244;51.460;7.090;2023-05-27T13:34:40;101319.78;;;21.91;37.92
12360;BME280;6244;51.460;7.090;2023-05-27T13:39:36;101314.88;;;21.86;37.31
12360;BME280;6244;51.460;7.090;2023-05-27T13:44:39;101319.75;;;21.72;37.13
12360;BME280;6244;51.460;7.090;2023-05-27T13:49:36;101304.13;;;21.77;37.59
12360;BME280;6244;51.460;7.090;2023-05-27T13:54:32;101291.13;;;22.72;35.13
12360;BME280;6244;51.460;7.090;2023-05-27T13:59:32;101288.81;;;23.72;32.76
12360;BME280;6244;51.460;7.090;2023-05-27T14:04:30;101288.66;;;24.01;32.32
12360;BME280;6244;51.460;7.090;2023-05-27T14:09:27;101282.25;;;24.12;32.15
12360;BME280;6244;51.460;7.090;2023-05-27T14:14:24;101268.63;;;24.23;30.97
12360;BME280;6244;51.460;7.090;2023-05-27T14:19:21;101263.28;;;24.23;32.31
12360;BME280;6244;51.460;7.090;2023-05-27T14:24:19;101251.88;;;24.39;32.59
12360;BME280;6244;51.460;7.090;2023-05-27T14:29:16;101245.91;;;24.45;33.04
12360;BME280;6244;51.460;7.090;2023-05-27T14:34:12;101246.81;;;24.53;32.13
12360;BME280;6244;51.460;7.090;2023-05-27T14:39:09;101237.56;;;24.48;32.80
12360;BME280;6244;51.460;7.090;2023-05-27T14:44:06;101226.09;;;24.64;33.01
12360;BME280;6244;51.460;7.090;2023-05-27T14:49:03;101222.25;;;24.66;32.12
12360;BME280;6244;51.460;7.090;2023-05-27T14:53:59;101222.66;;;24.53;32.26
12360;BME280;6244;51.460;7.090;2023-05-27T14:58:56;101217.09;;;24.47;31.68
12360;BME280;6244;51.460;7.090;2023-05-27T15:03:54;101226.13;;;24.46;32.46
12360;BME280;6244;51.460;7.090;2023-05-27T15:08:50;101224.72;;;24.42;31.92
12360;BME280;6244;51.460;7.090;2023-05-27T15:13:48;101216.91;;;24.30;31.73
12360;BME280;6244;51.460;7.090;2023-05-27T15:18:44;101217.63;;;23.87;33.85
12360;BME280;6244;51.460;7.090;2023-05-27T15:23:42;101216.84;;;23.50;33.72
12360;BME280;6244;51.460;7.090;2023-05-27T15:28:39;101200.09;;;23.38;34.29
12360;BME280;6244;51.460;7.090;2023-05-27T15:33:35;101199.16;;;23.29;33.72
12360;BME280;6244;51.460;7.090;2023-05-27T15:38:32;101201.44;;;23.24;35.38
12360;BME280;6244;51.460;7.090;2023-05-27T15:43:30;101184.25;;;23.17;33.82
12360;BME280;6244;51.460;7.090;2023-05-27T15:48:26;101183.72;;;23.13;35.49
12360;BME280;6244;51.460;7.090;2023-05-27T15:53:23;101181.53;;;22.99;34.43
12360;BME280;6244;51.460;7.090;2023-05-27T15:58:19;101175.06;;;22.92;35.84
12360;BME280;6244;51.460;7.090;2023-05-27T16:03:17;101168.44;;;22.96;34.29
12360;BME280;6244;51.460;7.090;2023-05-27T16:08:14;101165.94;;;22.85;36.37
12360;BME280;6244;51.460;7.090;2023-05-27T16:13:11;101158.44;;;22.79;35.00
12360;BME280;6244;51.460;7.090;2023-05-27T16:18:07;101148.06;;;22.66;36.42
12360;BME280;6244;51.460;7.090;2023-05-27T16:23:05;101145.53;;;22.65;35.51
12360;BME280;6244;51.460;7.090;2023-05-27T16:28:02;101143.16;;;22.42;35.67
12360;BME280;6244;51.460;7.090;2023-05-27T16:32:58;101141.78;;;22.38;34.21
12360;BME280;6244;51.460;7.090;2023-05-27T16:37:55;101135.19;;;22.23;36.03
12360;BME280;6244;51.460;7.090;2023-05-27T16:42:53;101132.63;;;22.02;35.85
12360;BME280;6244;51.460;7.090;2023-05-27T16:47:49;101129.53;;;22.07;36.39
12360;BME280;6244;51.460;7.090;2023-05-27T16:52:46;101123.75;;;22.02;36.36
12360;BME280;6244;51.460;7.090;2023-05-27T16:57:42;101121.91;;;21.92;36.42
12360;BME280;6244;51.460;7.090;2023-05-27T17:02:40;101121.22;;;21.90;33.52
12360;BME280;6244;51.460;7.090;2023-05-27T17:07:37;101114.72;;;21.64;35.86
12360;BME280;6244;51.460;7.090;2023-05-27T17:12:33;101120.31;;;21.42;36.20
12360;BME280;6244;51.460;7.090;2023-05-27T17:17:30;101122.69;;;21.35;35.71
12360;BME280;6244;51.460;7.090;2023-05-27T17:22:28;101123.63;;;21.24;35.59
12360;BME280;6244;51.460;7.090;2023-05-27T17:27:25;101128.63;;;21.18;36.10
12360;BME280;6244;51.460;7.090;2023-05-27T17:32:22;101118.09;;;21.16;35.03
12360;BME280;6244;51.460;7.090;2023-05-27T17:37:18;101112.28;;;21.01;36.54
12360;BME280;6244;51.460;7.090;2023-05-27T17:42:16;101121.56;;;20.97;37.07
12360;BME280;6244;51.460;7.090;2023-05-27T17:47:12;101114.06;;;20.91;37.89
12360;BME280;6244;51.460;7.090;2023-05-27T17:52:09;101114.28;;;20.78;37.58
12360;BME280;6244;51.460;7.090;2023-05-27T17:57:07;101108.06;;;20.68;36.82
12360;BME280;6244;51.460;7.090;2023-05-27T18:02:05;101112.91;;;20.53;37.72
12360;BME280;6244;51.460;7.090;2023-05-27T18:07:02;101108.19;;;20.46;37.11
12360;BME280;6244;51.460;7.090;2023-05-27T18:11:58;101116.34;;;20.44;37.37
12360;BME280;6244;51.460;7.090;2023-05-27T18:16:55;101115.66;;;20.31;38.68
12360;BME280;6244;51.460;7.090;2023-05-27T18:21:53;101112.28;;;20.29;39.19
12360;BME280;6244;51.460;7.090;2023-05-27T18:26:52;101114.03;;;20.19;39.38
12360;BME280;6244;51.460;7.090;2023-05-27T18:31:48;101111.06;;;20.12;39.03
12360;BME280;6244;51.460;7.090;2023-05-27T18:36:45;101110.13;;;20.02;39.21
12360;BME280;6244;51.460;7.090;2023-05-27T18:41:43;101114.66;;;19.90;37.93
12360;BME280;6244;51.460;7.090;2023-05-27T18:46:39;101119.06;;;19.69;37.70
12360;BME280;6244;51.460;7.090;2023-05-27T18:51:36;101113.16;;;19.65;37.83
12360;BME280;6244;51.460;7.090;2023-05-27T18:56:33;101118.75;;;19.62;39.39
12360;BME280;6244;51.460;7.090;2023-05-27T19:01:31;101122.34;;;19.73;40.52
12360;BME280;6244;51.460;7.090;2023-05-27T19:06:28;101125.75;;;19.63;40.85
12360;BME280;6244;51.460;7.090;2023-05-27T19:11:24;101123.09;;;19.52;40.88
12360;BME280;6244;51.460;7.090;2023-05-27T19:16:22;101124.78;;;19.53;41.51
12360;BME280;6244;51.460;7.090;2023-05-27T19:21:20;101128.03;;;19.46;41.42
12360;BME280;6244;51.460;7.090;2023-05-27T19:26:16;101128.06;;;19.34;42.05
12360;BME280;6244;51.460;7.090;2023-05-27T19:31:13;101119.50;;;19.31;42.22
12360;BME280;6244;51.460;7.090;2023-05-27T19:36:09;101130.38;;;19.28;43.66
12360;BME280;6244;51.460;7.090;2023-05-27T19:41:07;101122.88;;;19.22;45.19
12360;BME280;6244;51.460;7.090;2023-05-27T19:46:04;101130.66;;;19.14;45.39
12360;BME280;6244;51.460;7.090;2023-05-27T19:51:01;101127.72;;;19.05;45.32
12360;BME280;6244;51.460;7.090;2023-05-27T19:55:58;101126.88;;;18.94;45.99
12360;BME280;6244;51.460;7.090;2023-05-27T20:00:56;101129.06;;;18.89;46.25
12360;BME280;6244;51.460;7.090;2023-05-27T20:05:53;101131.22;;;18.84;46.74
12360;BME280;6244;51.460;7.090;2023-05-27T20:10:50;101124.97;;;18.73;47.00
12360;BME280;6244;51.460;7.090;2023-05-27T20:15:46;101123.72;;;18.66;47.41
12360;BME280;6244;51.460;7.090;2023-05-27T20:20:44;101123.94;;;18.63;47.96
12360;BME280;6244;51.460;7.090;2023-05-27T20:25:41;101125.59;;;18.53;48.28
12360;BME280;6244;51.460;7.090;2023-05-27T20:30:39;101115.09;;;18.52;48.38
12360;BME280;6244;51.460;7.090;2023-05-27T20:35:35;101113.88;;;18.44;48.62
12360;BME280;6244;51.460;7.090;2023-05-27T20:40:33;101120.50;;;18.39;48.81
12360;BME280;6244;51.460;7.090;2023-05-27T20:45:30;101119.28;;;18.32;49.10
12360;BME280;6244;51.460;7.090;2023-05-27T20:50:27;101114.94;;;18.31;49.29
12360;BME280;6244;51.460;7.090;2023-05-27T20:55:23;101114.41;;;18.14;49.43
12360;BME280;6244;51.460;7.090;2023-05-27T21:00:21;101107.88;;;18.18;49.12
12360;BME280;6244;51.460;7.090;2023-05-27T21:05:18;101097.81;;;18.00;49.23
12360;BME280;6244;51.460;7.090;2023-05-27T21:10:14;101091.03;;;17.96;49.55
12360;BME280;6244;51.460;7.090;2023-05-27T21:15:11;101095.25;;;17.98;49.24
12360;BME280;6244;51.460;7.090;2023-05-27T21:20:10;101093.78;;;17.94;49.50
12360;BME280;6244;51.460;7.090;2023-05-27T21:25:07;101095.72;;;17.92;49.62
12360;BME280;6244;51.460;7.090;2023-05-27T21:30:05;101093.53;;;17.86;50.22
12360;BME280;6244;51.460;7.090;2023-05-27T21:35:02;101087.22;;;17.76;50.35
12360;BME280;6244;51.460;7.090;2023-05-27T21:40:00;101096.66;;;17.67;50.52
12360;BME280;6244;51.460;7.090;2023-05-27T21:44:57;101093.59;;;17.60;50.95
12360;BME280;6244;51.460;7.090;2023-05-27T21:49:53;101093.84;;;17.57;51.12
12360;BME280;6244;51.460;7.090;2023-05-27T21:54:50;101083.16;;;17.46;51.15
12360;BME280;6244;51.460;7.090;2023-05-27T21:59:49;101086.53;;;17.48;51.45
12360;BME280;6244;51.460;7.090;2023-05-27T22:04:50;101092.72;;;17.49;50.99
12360;BME280;6244;51.460;7.090;2023-05-27T22:09:47;101088.06;;;17.40;51.53
12360;BME280;6244;51.460;7.090;2023-05-27T22:14:46;101078.84;;;17.32;51.81
12360;BME280;6244;51.460;7.090;2023-05-27T22:19:44;101073.06;;;17.27;51.89
12360;BME280;6244;51.460;7.090;2023-05-27T22:24:41;101073.59;;;17.20;51.98
12360;BME280;6244;51.460;7.090;2023-05-27T22:29:37;101064.28;;;17.14;52.25
12360;BME280;6244;51.460;7.090;2023-05-27T22:34:34;101065.25;;;17.13;52.36
12360;BME280;6244;51.460;7.090;2023-05-27T22:39:32;101060.38;;;17.07;52.50
12360;BME280;6244;51.460;7.090;2023-05-27T22:44:29;101060.94;;;16.99;52.62
12360;BME280;6244;51.460;7.090;2023-05-27T22:49:25;101061.47;;;16.92;52.44
12360;BME280;6244;51.460;7.090;2023-05-27T22:54:22;101048.63;;;16.86;53.06
12360;BME280;6244;51.460;7.090;2023-05-27T22:59:27;101051.28;;;16.86;53.19
12360;BME280;6244;51.460;7.090;2023-05-27T23:04:35;101051.97;;;16.77;52.84
12360;BME280;6244;51.460;7.090;2023-05-27T23:09:37;101046.78;;;16.75;52.63
12360;BME280;6244;51.460;7.090;2023-05-27T23:14:40;101052.91;;;16.76;52.64
12360;BME280;6244;51.460;7.090;2023-05-27T23:19:36;101050.78;;;16.68;53.13
12360;BME280;6244;51.460;7.090;2023-05-27T23:24:33;101054.78;;;16.61;54.19
12360;BME280;6244;51.460;7.090;2023-05-27T23:29:29;101050.78;;;16.55;53.80
12360;BME280;6244;51.460;7.090;2023-05-27T23:34:27;101047.50;;;16.52;53.76
12360;BME280;6244;51.460;7.090;2023-05-27T23:39:24;101044.19;;;16.48;53.66
12360;BME280;6244;51.460;7.090;2023-05-27T23:44:21;101043.69;;;16.43;53.89
12360;BME280;6244;51.460;7.090;2023-05-27T23:49:17;101044.19;;;16.35;53.75
12360;BME280;6244;51.460;7.090;2023-05-27T23:54:15;101042.19;;;16.26;55.19
12360;BME280;6244;51.460;7.090;2023-05-27T23:59:12;101035.41;;;16.22;54.90
